Time;durP1;ratioP1;P1;durP2;ratioP2;P2;SDS_P1;SDS_P2;PMS_P1;PMS_P2;Temp;Humidity;BMP_temperature;BMP_pressure;BME280_temperature;BME280_humidity;BME280_pressure;Samples;Min_cycle;Max_cycle;Signal;HPM_P1;HPM_P2
2023/09/08 00:02:06;;;;;;;17.00;10.88;;;22.00;82.70;;;;;;5039251;28;20060;-78
2023/09/08 00:04:34;;;;;;;14.90;10.35;;;22.00;82.40;;;;;;5056561;28;20030;-78
2023/09/08 00:07:00;;;;;;;13.77;10.23;;;22.00;82.00;;;;;;5055688;28;20056;-78
2023/09/08 00:09:26;;;;;;;14.30;9.88;;;22.00;82.10;;;;;;5056499;28;20539;-78
2023/09/08 00:11:54;;;;;;;14.25;10.38;;;22.00;82.10;;;;;;5055514;28;20045;-78
2023/09/08 00:14:20;;;;;;;14.23;10.15;;;21.90;82.10;;;;;;5055469;28;20025;-78
2023/09/08 00:16:45;;;;;;;14.35;10.00;;;21.90;81.70;;;;;;5055175;28;20041;-78
2023/09/08 00:19:11;;;;;;;14.60;9.18;;;21.80;81.70;;;;;;5055385;28;20030;-78
2023/09/08 00:21:37;;;;;;;11.95;9.25;;;21.80;81.40;;;;;;5055243;28;20036;-78
2023/09/08 00:24:06;;;;;;;12.75;9.43;;;21.80;81.50;;;;;;5056216;28;20383;-78
2023/09/08 00:26:32;;;;;;;13.02;9.40;;;21.80;81.80;;;;;;5056206;28;20040;-78
2023/09/08 00:28:58;;;;;;;12.45;9.38;;;21.80;81.30;;;;;;5055047;28;20053;-77
2023/09/08 00:31:24;;;;;;;14.05;10.13;;;21.70;81.40;;;;;;5055184;28;20085;-78
2023/09/08 00:33:49;;;;;;;11.43;9.40;;;21.70;81.40;;;;;;5055145;28;20021;-78
2023/09/08 00:36:15;;;;;;;13.02;9.25;;;21.70;81.30;;;;;;5055044;28;20030;-78
2023/09/08 00:38:41;;;;;;;12.65;9.18;;;21.70;81.30;;;;;;5055958;28;20041;-78
2023/09/08 00:41:07;;;;;;;9.35;6.60;;;21.60;81.10;;;;;;5055073;28;20037;-78
2023/09/08 00:43:33;;;;;;;7.85;6.20;;;21.60;80.80;;;;;;5055853;28;20032;-78
2023/09/08 00:45:58;;;;;;;10.63;7.55;;;21.50;80.80;;;;;;5038366;28;20121;-78
2023/09/08 00:48:25;;;;;;;9.45;7.38;;;21.50;81.50;;;;;;5055727;28;20030;-77
2023/09/08 00:50:51;;;;;;;10.82;8.07;;;21.30;81.00;;;;;;5055770;28;20026;-78
2023/09/08 00:53:17;;;;;;;12.13;9.68;;;21.10;81.60;;;;;;5055748;28;20025;-78
2023/09/08 00:55:44;;;;;;;13.73;9.82;;;21.10;82.40;;;;;;5038257;28;20515;-78
2023/09/08 00:58:11;;;;;;;13.75;8.82;;;21.00;82.40;;;;;;5055736;28;20112;-78
2023/09/08 01:00:37;;;;;;;13.88;9.05;;;21.00;82.60;;;;;;5054568;28;20022;-77
2023/09/08 01:03:03;;;;;;;13.25;9.38;;;21.10;82.60;;;;;;5055523;28;20026;-78
2023/09/08 01:05:29;;;;;;;12.02;9.07;;;21.00;82.50;;;;;;5053382;28;20032;-78
2023/09/08 01:07:55;;;;;;;12.38;9.20;;;21.00;82.70;;;;;;5037877;28;20060;-78
2023/09/08 01:10:21;;;;;;;12.65;9.02;;;21.00;82.70;;;;;;5054365;28;20024;-78
2023/09/08 01:12:47;;;;;;;14.45;9.40;;;21.00;82.80;;;;;;5055407;28;20025;-78
2023/09/08 01:15:13;;;;;;;13.05;9.90;;;20.90;82.90;;;;;;5055297;28;20468;-78
2023/09/08 01:17:39;;;;;;;12.77;10.07;;;21.00;82.90;;;;;;5055128;28;20072;-78
2023/09/08 01:20:17;;;;;;;14.68;10.15;;;21.00;82.80;;;;;;5055185;28;20021;-78
2023/09/08 01:23:06;;;;;;;12.88;9.05;;;21.00;82.90;;;;;;5054308;28;20028;-78
2023/09/08 01:25:35;;;;;;;12.82;9.23;;;21.00;83.00;;;;;;5054135;28;20094;-78
2023/09/08 01:28:01;;;;;;;13.57;9.95;;;21.00;83.40;;;;;;5053975;28;20075;-78
2023/09/08 01:30:32;;;;;;;13.02;9.98;;;21.00;83.40;;;;;;5055075;28;20025;-78
2023/09/08 01:32:59;;;;;;;13.55;9.95;;;21.00;83.10;;;;;;5055164;28;20025;-78
2023/09/08 01:35:25;;;;;;;10.90;9.00;;;21.00;83.10;;;;;;5037367;28;20488;-78
2023/09/08 01:37:50;;;;;;;13.05;10.10;;;20.90;82.90;;;;;;5054894;28;20048;-78
2023/09/08 01:40:18;;;;;;;11.35;8.60;;;20.90;83.10;;;;;;5053773;28;20018;-77
2023/09/08 01:42:44;;;;;;;9.90;8.18;;;20.90;83.20;;;;;;5053732;28;20017;-77
2023/09/08 01:45:10;;;;;;;10.43;7.75;;;20.90;83.40;;;;;;5053751;28;20045;-78
2023/09/08 01:47:36;;;;;;;10.30;7.95;;;20.80;83.40;;;;;;5053711;28;20034;-78
2023/09/08 01:50:02;;;;;;;9.60;6.93;;;20.70;83.70;;;;;;5053763;28;20086;-78
2023/09/08 01:52:27;;;;;;;12.20;9.15;;;20.80;84.10;;;;;;5053715;28;20049;-78
2023/09/08 01:54:53;;;;;;;12.95;9.63;;;20.80;84.30;;;;;;5053635;28;20036;-78
2023/09/08 01:57:19;;;;;;;11.35;8.88;;;20.70;84.20;;;;;;5053591;28;20052;-78
2023/09/08 01:59:44;;;;;;;11.40;9.18;;;20.70;84.20;;;;;;5054465;28;20029;-78
2023/09/08 02:02:11;;;;;;;16.88;9.20;;;20.70;84.30;;;;;;5053599;28;20492;-78
2023/09/08 02:04:37;;;;;;;13.55;9.02;;;20.70;84.30;;;;;;5054557;28;20022;-78
2023/09/08 02:07:04;;;;;;;12.70;9.13;;;20.70;84.30;;;;;;5053334;28;20040;-78
2023/09/08 02:09:39;;;;;;;14.18;9.98;;;20.70;84.20;;;;;;5053412;28;20087;-78
2023/09/08 02:12:05;;;;;;;15.80;11.00;;;20.70;84.30;;;;;;5054257;28;20017;-78
2023/09/08 02:14:30;;;;;;;13.90;9.52;;;20.70;84.50;;;;;;5053292;28;20036;-78
2023/09/08 02:16:56;;;;;;;11.00;8.60;;;20.70;84.50;;;;;;5052656;28;20053;-78
2023/09/08 02:19:22;;;;;;;13.48;8.55;;;20.70;84.20;;;;;;5054069;28;20079;-78
2023/09/08 02:21:48;;;;;;;12.52;8.95;;;20.60;84.30;;;;;;5053009;28;20093;-78
2023/09/08 02:24:14;;;;;;;12.45;9.18;;;20.60;84.20;;;;;;5053030;28;20110;-78
2023/09/08 02:26:40;;;;;;;14.93;9.80;;;20.50;84.40;;;;;;5053163;28;20053;-78
2023/09/08 02:29:07;;;;;;;14.10;10.35;;;20.60;84.50;;;;;;5052942;28;20033;-78
2023/09/08 02:31:33;;;;;;;16.30;10.60;;;20.60;84.40;;;;;;5053892;28;20021;-78
2023/09/08 02:33:58;;;;;;;17.23;10.48;;;20.60;84.10;;;;;;5053779;28;20017;-78
2023/09/08 02:36:27;;;;;;;15.77;10.13;;;20.70;84.10;;;;;;5053819;28;20032;-78
2023/09/08 02:38:56;;;;;;;15.82;10.32;;;20.70;83.80;;;;;;5052677;28;20025;-78
2023/09/08 02:41:22;;;;;;;15.10;10.23;;;20.60;83.70;;;;;;5052870;28;20038;-78
2023/09/08 02:43:48;;;;;;;14.07;9.90;;;20.60;84.00;;;;;;5053785;28;20036;-77
2023/09/08 02:46:14;;;;;;;13.77;9.35;;;20.50;84.10;;;;;;5053624;28;20029;-78
2023/09/08 02:48:40;;;;;;;12.95;8.98;;;20.50;84.00;;;;;;5052646;28;20034;-77
2023/09/08 02:51:06;;;;;;;12.68;9.25;;;20.50;83.80;;;;;;5052656;28;20023;-78
2023/09/08 02:53:32;;;;;;;12.93;8.88;;;20.50;83.70;;;;;;5052475;28;20036;-78
2023/09/08 02:55:58;;;;;;;12.65;7.95;;;20.40;83.70;;;;;;5053603;28;20049;-78
2023/09/08 02:58:25;;;;;;;11.15;8.40;;;20.40;83.60;;;;;;5052424;28;20022;-78
2023/09/08 03:00:52;;;;;;;12.77;8.27;;;20.30;83.50;;;;;;5052428;28;20025;-78
2023/09/08 03:03:19;;;;;;;13.02;9.23;;;20.20;83.70;;;;;;5053592;28;20037;-77
2023/09/08 03:05:44;;;;;;;14.88;9.98;;;20.20;83.90;;;;;;5052415;28;20028;-77
2023/09/08 03:08:10;;;;;;;10.88;8.45;;;20.20;84.60;;;;;;5053398;28;20017;-77
2023/09/08 03:10:36;;;;;;;11.68;8.55;;;20.20;85.10;;;;;;5052299;28;20029;-78
2023/09/08 03:13:02;;;;;;;11.60;8.75;;;20.20;85.20;;;;;;5053186;28;20040;-78
2023/09/08 03:15:28;;;;;;;12.30;8.90;;;20.10;85.30;;;;;;5052188;28;20088;-78
2023/09/08 03:18:00;;;;;;;13.50;9.50;;;20.10;85.50;;;;;;5051992;28;20049;-78
2023/09/08 03:20:28;;;;;;;14.43;10.05;;;20.10;85.50;;;;;;5053191;28;20052;-78
2023/09/08 03:22:54;;;;;;;8.20;6.70;;;20.10;85.60;;;;;;5052169;28;20013;-78
2023/09/08 03:25:19;;;;;;;6.38;5.30;;;20.10;85.50;;;;;;5052067;28;20041;-78
2023/09/08 03:27:45;;;;;;;6.03;5.25;;;20.00;85.60;;;;;;5052065;28;20033;-78
2023/09/08 03:30:11;;;;;;;10.77;7.13;;;19.90;85.80;;;;;;5056381;28;20078;-78
2023/09/08 03:32:37;;;;;;;11.25;7.20;;;19.90;85.70;;;;;;5039775;28;20021;-78
2023/09/08 03:35:06;;;;;;;11.10;8.93;;;19.90;85.70;;;;;;5056197;28;20022;-78
2023/09/08 03:37:33;;;;;;;12.73;8.98;;;19.80;85.80;;;;;;5057137;28;20090;-77
2023/09/08 03:39:59;;;;;;;14.95;9.38;;;19.80;86.10;;;;;;5057056;28;20064;-77
2023/09/08 03:42:24;;;;;;;13.27;8.77;;;19.80;86.30;;;;;;5057010;28;20033;-78
2023/09/08 03:44:50;;;;;;;11.98;9.32;;;19.90;86.40;;;;;;5056087;28;20049;-78
2023/09/08 03:47:16;;;;;;;15.73;10.10;;;19.90;86.40;;;;;;5055968;28;20072;-78
2023/09/08 03:49:41;;;;;;;12.32;8.35;;;19.90;86.30;;;;;;5039319;28;20029;-78
2023/09/08 03:52:07;;;;;;;14.02;9.73;;;19.90;85.80;;;;;;5055827;28;20021;-77
2023/09/08 03:54:33;;;;;;;16.08;9.10;;;19.90;85.80;;;;;;5055794;28;20034;-78
2023/09/08 03:56:58;;;;;;;15.57;9.43;;;19.90;86.30;;;;;;5055747;28;20045;-78
2023/09/08 03:59:24;;;;;;;16.60;9.23;;;19.90;86.30;;;;;;5056861;28;20034;-78
2023/09/08 04:01:49;;;;;;;14.20;10.20;;;19.90;86.00;;;;;;5055743;28;20029;-78
2023/09/08 04:04:15;;;;;;;14.77;9.93;;;19.80;85.90;;;;;;5055876;28;20033;-78
2023/09/08 04:06:41;;;;;;;13.07;9.43;;;19.70;86.50;;;;;;5039178;28;20248;-78
2023/09/08 04:09:07;;;;;;;13.13;9.43;;;19.70;85.70;;;;;;5055458;28;20503;-77
2023/09/08 04:11:33;;;;;;;14.38;9.55;;;19.80;85.90;;;;;;5056506;28;20017;-78
2023/09/08 04:13:58;;;;;;;12.95;8.70;;;19.80;86.60;;;;;;5056474;28;20033;-78
2023/09/08 04:16:25;;;;;;;12.95;9.35;;;19.80;85.80;;;;;;5055287;28;20124;-78
2023/09/08 04:18:51;;;;;;;14.18;8.55;;;19.80;85.70;;;;;;5055542;28;20085;-78
2023/09/08 04:21:16;;;;;;;12.55;8.90;;;19.80;86.00;;;;;;5055412;28;20030;-78
2023/09/08 04:23:42;;;;;;;11.07;7.57;;;19.70;85.90;;;;;;5038801;28;20072;-77
2023/09/08 04:26:07;;;;;;;10.82;7.63;;;19.70;85.70;;;;;;5055311;28;20045;-78
2023/09/08 04:28:33;;;;;;;19.33;8.38;;;19.70;85.60;;;;;;5055121;28;20025;-77
2023/09/08 04:30:59;;;;;;;11.50;8.73;;;19.70;85.70;;;;;;5038611;28;20030;-77
2023/09/08 04:33:24;;;;;;;11.18;7.85;;;19.70;85.70;;;;;;5055213;28;20028;-78
2023/09/08 04:35:50;;;;;;;12.40;8.50;;;19.60;85.60;;;;;;5055069;28;20056;-77
2023/09/08 04:38:15;;;;;;;13.10;8.95;;;19.60;85.60;;;;;;5056015;28;20030;-78
2023/09/08 04:40:42;;;;;;;13.85;8.70;;;19.60;85.80;;;;;;5055011;28;20033;-77
2023/09/08 04:43:07;;;;;;;13.05;8.93;;;19.60;85.80;;;;;;5054961;28;20032;-77
2023/09/08 04:45:33;;;;;;;13.48;8.80;;;19.60;85.90;;;;;;5055842;28;20048;-77
2023/09/08 04:47:58;;;;;;;13.32;8.50;;;19.50;85.60;;;;;;5054870;28;20092;-78
2023/09/08 04:50:24;;;;;;;10.95;7.88;;;19.50;85.70;;;;;;5054660;28;20032;-77
2023/09/08 04:52:50;;;;;;;11.38;8.00;;;19.40;86.00;;;;;;5055735;28;20049;-77
2023/09/08 04:55:16;;;;;;;13.95;8.80;;;19.30;86.20;;;;;;5054816;28;20033;-77
2023/09/08 04:57:42;;;;;;;13.45;8.98;;;19.40;86.30;;;;;;5055699;28;20026;-78
2023/09/08 05:00:08;;;;;;;14.23;9.43;;;19.40;86.30;;;;;;5055556;28;20044;-78
2023/09/08 05:02:34;;;;;;;12.00;8.50;;;19.40;86.40;;;;;;5038229;28;20059;-78
2023/09/08 05:05:00;;;;;;;14.82;8.95;;;19.40;86.30;;;;;;5054493;28;20029;-77
2023/09/08 05:07:25;;;;;;;12.93;8.25;;;19.40;86.40;;;;;;5055487;28;20034;-78
2023/09/08 05:09:51;;;;;;;10.88;8.05;;;19.40;86.60;;;;;;5054391;28;20121;-78
2023/09/08 05:12:16;;;;;;;12.52;8.77;;;19.30;86.70;;;;;;5054637;28;20449;-78
2023/09/08 05:14:42;;;;;;;12.07;8.57;;;19.40;86.90;;;;;;5054418;28;20041;-78
2023/09/08 05:17:08;;;;;;;12.23;8.57;;;19.30;86.80;;;;;;5054151;28;20076;-78
2023/09/08 05:19:33;;;;;;;13.32;8.32;;;19.30;86.80;;;;;;5054272;28;20034;-77
2023/09/08 05:21:59;;;;;;;12.60;8.82;;;19.30;86.70;;;;;;5054513;28;20045;-78
2023/09/08 05:24:26;;;;;;;12.10;8.55;;;19.30;87.00;;;;;;5054257;28;20036;-78
2023/09/08 05:26:52;;;;;;;12.23;8.98;;;19.30;87.30;;;;;;5054386;28;20029;-78
2023/09/08 05:29:18;;;;;;;13.65;8.52;;;19.30;87.30;;;;;;5054145;28;20378;-78
2023/09/08 05:31:44;;;;;;;15.55;9.30;;;19.40;87.30;;;;;;5055012;28;20033;-78
2023/09/08 05:34:10;;;;;;;10.88;8.60;;;19.40;87.30;;;;;;5037363;28;20036;-79
2023/09/08 05:36:38;;;;;;;12.35;9.20;;;19.40;87.40;;;;;;5054899;28;20084;-78
2023/09/08 05:39:04;;;;;;;17.55;9.05;;;19.50;87.60;;;;;;5054841;28;20021;-78
2023/09/08 05:41:30;;;;;;;14.95;9.25;;;19.50;87.60;;;;;;5053889;28;20037;-78
2023/09/08 05:43:55;;;;;;;14.60;9.90;;;19.50;88.00;;;;;;5053749;28;20029;-77
2023/09/08 05:46:21;;;;;;;14.05;9.70;;;19.50;88.10;;;;;;5053799;28;20105;-78
2023/09/08 05:48:47;;;;;;;17.60;10.25;;;19.50;88.20;;;;;;5054592;28;20038;-77
2023/09/08 05:51:14;;;;;;;16.58;9.98;;;19.40;88.40;;;;;;5053154;28;20025;-78
2023/09/08 05:53:40;;;;;;;19.20;10.57;;;19.50;88.60;;;;;;5053518;28;20022;-77
2023/09/08 05:56:06;;;;;;;15.45;10.48;;;19.50;88.60;;;;;;5053819;28;20021;-78
2023/09/08 05:58:33;;;;;;;18.05;10.90;;;19.50;88.80;;;;;;5053426;28;20043;-77
2023/09/08 06:01:02;;;;;;;16.85;10.98;;;19.50;89.10;;;;;;5054526;28;20037;-77
2023/09/08 06:03:28;;;;;;;17.55;12.10;;;19.50;89.00;;;;;;5053456;28;20025;-78
2023/09/08 06:05:54;;;;;;;19.55;11.10;;;19.60;89.10;;;;;;5053394;28;20033;-78
2023/09/08 06:08:20;;;;;;;16.75;10.52;;;19.60;89.30;;;;;;5054267;28;20028;-78
2023/09/08 06:10:45;;;;;;;15.88;10.73;;;19.50;89.60;;;;;;5053373;28;20401;-77
2023/09/08 06:13:11;;;;;;;16.88;10.82;;;19.60;89.60;;;;;;5054291;28;20089;-77
2023/09/08 06:15:37;;;;;;;19.52;11.02;;;19.60;89.70;;;;;;5036751;28;20055;-77
2023/09/08 06:18:03;;;;;;;17.27;10.90;;;19.70;89.70;;;;;;5053949;28;20046;-77
2023/09/08 06:20:28;;;;;;;19.63;11.48;;;19.70;89.80;;;;;;5053278;28;20040;-78
2023/09/08 06:22:54;;;;;;;16.90;11.60;;;19.80;89.90;;;;;;5054096;28;20096;-78
2023/09/08 06:25:19;;;;;;;19.23;11.52;;;19.80;89.70;;;;;;5054025;28;20032;-78
2023/09/08 06:27:45;;;;;;;22.92;12.80;;;19.90;89.80;;;;;;5052938;28;20377;-78
2023/09/08 06:30:13;;;;;;;17.77;12.00;;;19.90;89.60;;;;;;5036394;28;20036;-78
2023/09/08 06:32:39;;;;;;;19.08;11.68;;;20.00;89.60;;;;;;5052944;28;20038;-78
2023/09/08 06:35:04;;;;;;;18.42;11.95;;;20.00;89.60;;;;;;5052673;28;20026;-79
2023/09/08 06:37:36;;;;;;;17.98;12.38;;;20.00;89.70;;;;;;5053812;28;20026;-78
2023/09/08 06:40:01;;;;;;;18.38;12.75;;;20.00;90.00;;;;;;5052835;28;20037;-78
2023/09/08 06:42:27;;;;;;;20.95;12.80;;;20.00;90.10;;;;;;5053692;28;20029;-78
2023/09/08 06:44:53;;;;;;;19.25;13.07;;;20.00;90.10;;;;;;5053658;28;20021;-78
2023/09/08 06:47:18;;;;;;;20.20;13.02;;;20.10;90.10;;;;;;5053766;28;20400;-78
2023/09/08 06:49:44;;;;;;;18.85;12.23;;;20.10;90.20;;;;;;5052524;28;20033;-78
2023/09/08 06:52:09;;;;;;;18.10;12.75;;;20.10;90.20;;;;;;5052812;28;20025;-78
2023/09/08 06:54:35;;;;;;;19.88;12.85;;;20.20;90.30;;;;;;5052473;28;20033;-78
2023/09/08 06:57:00;;;;;;;19.88;13.40;;;20.20;90.40;;;;;;5052706;28;20089;-78
2023/09/08 06:59:26;;;;;;;19.08;12.75;;;20.30;90.50;;;;;;5053446;28;20039;-78
2023/09/08 07:01:53;;;;;;;19.67;13.50;;;20.30;90.40;;;;;;5053442;28;20026;-78
2023/09/08 07:04:18;;;;;;;21.90;14.32;;;20.40;90.40;;;;;;5051658;28;20036;-78
2023/09/08 07:06:46;;;;;;;20.88;13.52;;;20.40;90.60;;;;;;5052582;28;20097;-78
2023/09/08 07:09:12;;;;;;;23.35;14.50;;;20.40;90.70;;;;;;5053283;28;20511;-78
2023/09/08 07:11:37;;;;;;;23.73;13.63;;;20.50;90.50;;;;;;5052482;28;20037;-79
2023/09/08 07:14:03;;;;;;;20.38;13.93;;;20.50;90.40;;;;;;5035770;28;20068;-78
2023/09/08 07:16:29;;;;;;;24.40;14.07;;;20.50;90.40;;;;;;5052079;28;20042;-78
2023/09/08 07:18:54;;;;;;;22.60;14.38;;;20.50;90.40;;;;;;5052327;28;20029;-78
2023/09/08 07:21:20;;;;;;;18.23;14.15;;;20.60;90.40;;;;;;5052273;28;20036;-77
2023/09/08 07:23:46;;;;;;;21.50;14.15;;;20.70;90.50;;;;;;5053145;28;20034;-78
2023/09/08 07:26:12;;;;;;;23.80;14.63;;;20.80;90.40;;;;;;5052143;28;20030;-78
2023/09/08 07:28:37;;;;;;;23.52;14.45;;;20.80;90.40;;;;;;5053043;28;20022;-78
2023/09/08 07:31:08;;;;;;;23.17;15.20;;;20.90;90.30;;;;;;5053104;28;20025;-78
2023/09/08 07:33:34;;;;;;;23.63;14.38;;;21.00;90.40;;;;;;5053068;28;20080;-79
2023/09/08 07:36:05;;;;;;;20.77;14.60;;;21.00;90.20;;;;;;5052007;28;20026;-79
2023/09/08 07:38:31;;;;;;;23.83;15.23;;;21.10;90.20;;;;;;5053051;28;20025;-78
2023/09/08 07:40:56;;;;;;;22.92;15.20;;;21.20;90.40;;;;;;5053002;28;20035;-78
2023/09/08 07:43:22;;;;;;;21.95;15.60;;;21.20;90.10;;;;;;5052976;28;20034;-78
2023/09/08 07:45:48;;;;;;;25.77;14.85;;;21.30;90.00;;;;;;5052109;28;20052;-78
2023/09/08 07:48:13;;;;;;;24.17;14.52;;;21.40;90.20;;;;;;5035481;28;20053;-78
2023/09/08 07:50:39;;;;;;;22.30;14.73;;;21.40;90.00;;;;;;5052921;28;20045;-77
2023/09/08 07:53:05;;;;;;;22.65;14.82;;;21.50;89.50;;;;;;5052863;28;20033;-77
2023/09/08 07:55:30;;;;;;;23.20;15.05;;;21.60;89.60;;;;;;5052864;28;20092;-78
2023/09/08 07:57:57;;;;;;;23.63;15.27;;;21.60;89.70;;;;;;5051915;28;20025;-78
2023/09/08 08:00:23;;;;;;;22.95;14.75;;;21.80;89.90;;;;;;5051822;28;20089;-78
2023/09/08 08:02:54;;;;;;;21.25;15.65;;;21.90;89.30;;;;;;5051870;28;20010;-78
2023/09/08 08:05:20;;;;;;;22.45;14.35;;;22.00;89.10;;;;;;5052849;28;20026;-79
2023/09/08 08:07:46;;;;;;;23.42;15.65;;;22.00;88.70;;;;;;5051745;28;20032;-79
2023/09/08 08:10:12;;;;;;;24.98;15.18;;;22.10;89.60;;;;;;5052742;28;20025;-79
2023/09/08 08:12:39;;;;;;;24.15;15.38;;;22.10;88.80;;;;;;5051765;28;20022;-79
2023/09/08 08:15:05;;;;;;;23.58;15.73;;;22.20;88.80;;;;;;5053956;28;20026;-79
2023/09/08 08:17:31;;;;;;;27.70;15.65;;;22.30;88.40;;;;;;5055346;28;20052;-78
2023/09/08 08:20:06;;;;;;;24.92;15.38;;;22.40;88.90;;;;;;5055439;28;20044;-78
2023/09/08 08:22:33;;;;;;;24.60;15.63;;;22.50;89.00;;;;;;5055368;28;20032;-78
2023/09/08 08:24:59;;;;;;;22.40;15.10;;;22.60;89.00;;;;;;5055418;28;20089;-78
2023/09/08 08:27:25;;;;;;;26.48;15.65;;;22.70;88.60;;;;;;5055179;28;20033;-79
2023/09/08 08:29:51;;;;;;;23.85;14.90;;;22.80;88.40;;;;;;5055223;28;20035;-79
2023/09/08 08:32:17;;;;;;;24.90;15.05;;;22.90;87.90;;;;;;5056213;28;20014;-78
2023/09/08 08:34:42;;;;;;;23.48;15.10;;;23.00;88.30;;;;;;5055111;28;20025;-79
2023/09/08 08:37:08;;;;;;;23.25;16.13;;;23.10;87.60;;;;;;5038526;28;20033;-78
2023/09/08 08:39:34;;;;;;;21.42;15.00;;;23.20;87.10;;;;;;5055127;28;20029;-79
2023/09/08 08:42:08;;;;;;;20.80;14.02;;;23.30;87.20;;;;;;5056004;28;20029;-79
2023/09/08 08:44:34;;;;;;;22.98;15.13;;;23.40;87.40;;;;;;5055935;28;20018;-78
2023/09/08 08:47:02;;;;;;;23.58;14.93;;;23.50;86.60;;;;;;5055045;28;20029;-79
2023/09/08 08:49:31;;;;;;;22.55;14.18;;;23.60;86.50;;;;;;5054920;28;20022;-78
2023/09/08 08:51:58;;;;;;;18.17;13.43;;;23.60;85.90;;;;;;5054918;28;20018;-79
2023/09/08 08:54:24;;;;;;;24.50;14.40;;;23.70;85.80;;;;;;5055857;28;20479;-79
2023/09/08 08:56:51;;;;;;;19.95;14.02;;;23.80;86.40;;;;;;5054717;28;20025;-79
2023/09/08 08:59:17;;;;;;;24.15;14.77;;;23.90;86.10;;;;;;5055791;28;20025;-79
2023/09/08 09:01:43;;;;;;;19.10;13.18;;;24.00;85.60;;;;;;5054695;28;20032;-79
2023/09/08 09:04:10;;;;;;;20.30;13.85;;;24.10;85.10;;;;;;5054645;28;20021;-79
2023/09/08 09:06:36;;;;;;;22.08;12.80;;;24.20;85.40;;;;;;5054540;28;20049;-78
2023/09/08 09:09:04;;;;;;;21.75;13.63;;;24.30;85.10;;;;;;5054399;28;20037;-79
2023/09/08 09:11:31;;;;;;;23.00;14.07;;;24.50;84.50;;;;;;5055455;28;20021;-79
2023/09/08 09:13:58;;;;;;;20.85;14.20;;;24.60;84.00;;;;;;5038131;28;20026;-79
2023/09/08 09:16:23;;;;;;;19.13;13.30;;;24.60;82.70;;;;;;5055081;28;20045;-79
2023/09/08 09:18:57;;;;;;;20.10;13.27;;;24.60;83.60;;;;;;5037964;28;20038;-79
2023/09/08 09:21:23;;;;;;;22.77;12.80;;;24.70;83.50;;;;;;5054269;28;20057;-79
2023/09/08 09:23:49;;;;;;;14.93;10.65;;;24.90;83.10;;;;;;5054178;28;20021;-79
2023/09/08 09:26:25;;;;;;;16.65;11.15;;;25.00;81.80;;;;;;5054282;28;20048;-79
2023/09/08 09:28:52;;;;;;;20.30;12.63;;;25.10;80.80;;;;;;5055085;28;20037;-79
2023/09/08 09:31:18;;;;;;;15.30;11.43;;;25.20;81.30;;;;;;5055109;28;20016;-79
2023/09/08 09:33:45;;;;;;;18.65;13.13;;;25.30;80.80;;;;;;5053970;28;20022;-79
2023/09/08 09:36:20;;;;;;;17.60;12.02;;;25.40;80.60;;;;;;5054985;28;20025;-79
2023/09/08 09:38:47;;;;;;;17.95;12.10;;;25.50;80.80;;;;;;5053938;28;20052;-79
2023/09/08 09:41:12;;;;;;;20.17;13.60;;;25.60;81.40;;;;;;5054921;28;20030;-79
2023/09/08 09:43:38;;;;;;;18.20;13.13;;;25.70;81.50;;;;;;5053873;28;20061;-79
2023/09/08 09:46:08;;;;;;;15.77;11.07;;;25.80;81.70;;;;;;5054742;28;20030;-78
2023/09/08 09:48:35;;;;;;;15.20;10.90;;;25.80;79.00;;;;;;5037439;28;20021;-79
2023/09/08 09:51:15;;;;;;;16.63;11.68;;;25.90;79.80;;;;;;5053641;28;20017;-79
2023/09/08 09:53:42;;;;;;;14.50;10.07;;;26.00;78.30;;;;;;5054694;28;20028;-79
2023/09/08 09:56:09;;;;;;;14.65;11.10;;;26.10;78.80;;;;;;5053693;28;20032;-79
2023/09/08 09:58:35;;;;;;;13.88;9.63;;;26.30;79.40;;;;;;5053641;28;20033;-79
2023/09/08 10:01:02;;;;;;;13.40;9.73;;;26.40;77.50;;;;;;5053648;28;20025;-79
2023/09/08 10:03:28;;;;;;;13.85;10.20;;;26.40;77.00;;;;;;5054580;28;20029;-78
2023/09/08 10:05:54;;;;;;;14.70;9.50;;;26.50;78.00;;;;;;5054406;28;20034;-79
2023/09/08 10:08:20;;;;;;;13.80;8.75;;;26.60;78.10;;;;;;5053459;28;20029;-79
2023/09/08 10:10:47;;;;;;;11.73;9.18;;;26.70;77.40;;;;;;5054287;28;20028;-79
2023/09/08 10:13:16;;;;;;;12.15;9.27;;;26.70;76.70;;;;;;5054264;28;20052;-79
2023/09/08 10:15:43;;;;;;;11.63;8.80;;;26.80;76.50;;;;;;5054227;28;20026;-79
2023/09/08 10:18:11;;;;;;;10.35;7.88;;;26.80;77.30;;;;;;5053965;28;20083;-79
2023/09/08 10:20:37;;;;;;;12.55;8.63;;;26.90;76.30;;;;;;5053094;28;20025;-79
2023/09/08 10:23:29;;;;;;;13.10;9.25;;;27.00;76.00;;;;;;5054043;28;20025;-79
2023/09/08 10:25:59;;;;;;;11.30;8.37;;;27.10;77.00;;;;;;5038204;28;20048;-79
2023/09/08 10:28:26;;;;;;;11.15;8.75;;;27.10;74.90;;;;;;5052920;28;20101;-79
2023/09/08 10:30:53;;;;;;;11.60;8.80;;;27.20;75.50;;;;;;5053951;28;20021;-79
2023/09/08 10:33:19;;;;;;;11.27;8.80;;;27.30;75.10;;;;;;5053922;28;20032;-79
2023/09/08 10:35:46;;;;;;;12.50;9.13;;;27.30;75.80;;;;;;5052773;28;20052;-79
2023/09/08 10:38:28;;;;;;;13.10;10.18;;;27.40;76.40;;;;;;5052886;28;20021;-79
2023/09/08 10:41:16;;;;;;;13.60;10.23;;;27.50;75.70;;;;;;5053842;28;20053;-79
2023/09/08 10:43:55;;;;;;;15.27;9.93;;;27.70;75.80;;;;;;5052686;28;20029;-79
2023/09/08 10:46:23;;;;;;;11.77;9.60;;;27.70;74.90;;;;;;5053863;28;20024;-79
2023/09/08 10:48:48;;;;;;;15.02;10.60;;;27.70;74.70;;;;;;5053557;28;20036;-79
2023/09/08 10:51:17;;;;;;;12.80;9.98;;;27.70;75.50;;;;;;5053599;28;20029;-79
2023/09/08 10:53:46;;;;;;;13.32;9.57;;;27.80;75.90;;;;;;5052570;28;20045;-78
2023/09/08 10:56:11;;;;;;;12.85;9.63;;;28.00;75.70;;;;;;5036515;28;20026;-78
2023/09/08 10:58:42;;;;;;;14.02;9.98;;;28.10;75.60;;;;;;5052571;28;20075;-78
2023/09/08 11:01:13;;;;;;;13.88;10.10;;;28.20;74.80;;;;;;5052568;28;20021;-78
2023/09/08 11:03:39;;;;;;;16.63;11.35;;;28.30;73.70;;;;;;5053517;28;20033;-79
2023/09/08 11:06:08;;;;;;;16.52;11.27;;;28.30;72.70;;;;;;5053410;28;20081;-79
2023/09/08 11:08:36;;;;;;;15.82;11.07;;;28.20;72.70;;;;;;5053401;28;20025;-78
2023/09/08 11:11:02;;;;;;;15.52;11.18;;;28.30;72.60;;;;;;5053481;28;20017;-79
2023/09/08 11:13:28;;;;;;;12.60;9.90;;;28.30;72.70;;;;;;5035903;28;20028;-79
2023/09/08 11:15:54;;;;;;;12.25;9.90;;;28.30;72.40;;;;;;5052294;28;20036;-78
2023/09/08 11:18:30;;;;;;;13.95;10.07;;;28.40;73.90;;;;;;5053125;28;20081;-78
2023/09/08 11:20:57;;;;;;;11.65;9.05;;;28.50;73.00;;;;;;5053241;28;20607;-79
2023/09/08 11:23:23;;;;;;;17.23;10.65;;;28.50;73.20;;;;;;5052131;28;20045;-78
2023/09/08 11:25:50;;;;;;;11.57;8.82;;;28.50;71.80;;;;;;5052099;28;20040;-79
2023/09/08 11:28:17;;;;;;;13.60;9.80;;;28.50;73.10;;;;;;5052927;28;20416;-79
2023/09/08 11:30:43;;;;;;;15.45;9.60;;;28.60;72.60;;;;;;5052249;28;20385;-78
2023/09/08 11:33:16;;;;;;;13.45;8.80;;;28.70;73.70;;;;;;5053092;28;20044;-79
2023/09/08 11:35:44;;;;;;;11.95;8.23;;;28.80;72.90;;;;;;5052049;28;20033;-78
2023/09/08 11:38:11;;;;;;;11.13;8.10;;;28.80;72.20;;;;;;5053036;28;20052;-78
2023/09/08 11:40:37;;;;;;;11.02;8.40;;;28.90;72.60;;;;;;5053015;28;20025;-78
2023/09/08 11:43:03;;;;;;;11.23;8.25;;;28.90;71.60;;;;;;5052988;28;20061;-78
2023/09/08 11:45:30;;;;;;;12.60;7.20;;;29.00;69.80;;;;;;5052975;28;20045;-78
2023/09/08 11:47:57;;;;;;;10.10;7.85;;;29.00;70.60;;;;;;5053010;28;20029;-78
2023/09/08 11:50:23;;;;;;;9.52;6.88;;;29.00;71.10;;;;;;5055686;28;20033;-78
2023/09/08 11:52:53;;;;;;;9.55;7.50;;;29.10;71.60;;;;;;5056927;28;20013;-78
2023/09/08 11:55:20;;;;;;;14.52;8.10;;;29.20;71.80;;;;;;5057077;28;20018;-78
2023/09/08 11:57:54;;;;;;;12.35;7.90;;;29.20;69.90;;;;;;5056848;28;20022;-78
2023/09/08 12:00:22;;;;;;;10.65;7.78;;;29.10;68.70;;;;;;5056945;28;20389;-79
2023/09/08 12:02:49;;;;;;;9.93;7.45;;;29.00;68.90;;;;;;5055849;28;20093;-79
2023/09/08 12:05:28;;;;;;;9.65;7.20;;;29.10;70.30;;;;;;5056703;28;20026;-78
2023/09/08 12:07:58;;;;;;;9.60;7.15;;;29.20;71.50;;;;;;5055631;28;20549;-78
2023/09/08 12:10:25;;;;;;;10.93;6.95;;;29.30;70.50;;;;;;5056667;28;20029;-78
2023/09/08 12:13:00;;;;;;;11.63;7.40;;;29.30;70.40;;;;;;5055631;28;20357;-78
2023/09/08 12:15:34;;;;;;;9.43;7.38;;;29.50;70.60;;;;;;5055713;28;20103;-79
2023/09/08 12:18:01;;;;;;;10.02;6.97;;;29.60;70.40;;;;;;5056311;28;20038;-79
2023/09/08 12:20:27;;;;;;;10.52;6.80;;;29.60;69.50;;;;;;5056425;28;20034;-80
2023/09/08 12:22:53;;;;;;;8.70;7.43;;;29.60;70.10;;;;;;5055400;28;20026;-80
2023/09/08 12:25:19;;;;;;;8.32;7.07;;;29.80;69.70;;;;;;5038832;28;20093;-80
2023/09/08 12:27:46;;;;;;;11.15;7.18;;;29.80;70.00;;;;;;5056315;28;20029;-80
2023/09/08 12:30:29;;;;;;;9.73;7.57;;;29.90;68.90;;;;;;5038888;28;20021;-81
2023/09/08 12:32:58;;;;;;;9.38;6.82;;;29.80;69.60;;;;;;5055174;28;20048;-81